Time;durP1;ratioP1;P1;durP2;ratioP2;P2;SDS_P1;SDS_P2;PMS_P1;PMS_P2;Temp;Humidity;BMP_temperature;BMP_pressure;BME280_temperature;BME280_humidity;BME280_pressure;Samples;Min_cycle;Max_cycle;Signal;HPM_P1;HPM_P2
2022/06/12 00:00:17;;;;;;;;;;;;;;;16.29;100.00;98734.51;1622793;88;22004;-85
2022/06/12 00:02:45;;;;;;;;;;;;;;;16.30;100.00;98731.73;1621332;88;23146;-85
2022/06/12 00:05:13;;;;;;;;;;;;;;;16.27;100.00;98732.48;1622416;86;24619;-87
2022/06/12 00:07:41;;;;;;;;;;;;;;;16.24;100.00;98730.12;1620941;88;20250;-86
2022/06/12 00:10:07;;;;;;;;;;;;;;;16.17;100.00;98740.86;1623390;87;24691;-86
2022/06/12 00:12:33;;;;;;;;;;;;;;;16.15;100.00;98737.51;1627228;86;22136;-85
2022/06/12 00:14:59;;;;;;;;;;;;;;;16.16;100.00;98726.82;1605761;87;21044;-85
2022/06/12 00:17:25;;;;;;;;;;;;;;;16.19;100.00;98727.05;1615734;87;20261;-85
2022/06/12 00:19:52;;;;;;;;;;;;;;;16.18;100.00;98730.66;1615802;87;20199;-86
2022/06/12 00:22:23;;;;;;;;;;;;;;;16.16;100.00;98732.59;1615460;87;24564;-85
2022/06/12 00:24:50;;;;;;;;;;;;;;;16.12;100.00;98733.35;1615251;87;22159;-86
2022/06/12 00:27:18;;;;;;;;;;;;;;;16.11;100.00;98737.44;1616002;87;25991;-86
2022/06/12 00:29:47;;;;;;;;;;;;;;;16.13;100.00;98723.14;1615468;87;24546;-86
2022/06/12 00:32:13;;;;;;;;;;;;;;;16.13;100.00;98736.34;1614789;87;20359;-86
2022/06/12 00:34:42;;;;;;;;;;;;;;;16.13;100.00;98731.06;1614998;87;25334;-87
2022/06/12 00:37:09;;;;;;;;;;;;;;;16.14;100.00;98726.63;1616745;87;22065;-86
2022/06/12 00:39:42;;;;;;;;;;;;;;;16.15;100.00;98722.98;1615949;87;26053;-86
2022/06/12 00:42:09;;;;;;;;;;;;;;;16.10;100.00;98732.64;1628251;86;25121;-86
2022/06/12 00:44:39;;;;;;;;;;;;;;;16.09;100.00;98731.47;1657488;85;20351;-86
2022/06/12 00:47:09;;;;;;;;;;;;;;;16.08;100.00;98724.52;1663576;85;20143;-85
2022/06/12 00:49:37;;;;;;;;;;;;;;;16.07;100.00;98723.68;1610667;87;22739;-85
2022/06/12 00:52:14;;;;;;;;;;;;;;;16.04;100.00;98723.13;1610366;87;26012;-85
2022/06/12 00:54:42;;;;;;;;;;;;;;;15.98;100.00;98723.17;1616303;87;24653;-85
2022/06/12 00:57:08;;;;;;;;;;;;;;;15.95;100.00;98723.91;1616310;87;20519;-85
2022/06/12 00:59:41;;;;;;;;;;;;;;;15.92;100.00;98719.75;1617731;87;25375;-85
2022/06/12 01:02:09;;;;;;;;;;;;;;;15.86;100.00;98717.16;1632741;85;22118;-85
2022/06/12 01:07:28;;;;;;;;;;;;;;;15.67;100.00;98710.46;1615979;87;24506;-84
2022/06/12 01:09:55;;;;;;;;;;;;;;;15.55;100.00;98715.98;1631531;86;20246;-85
2022/06/12 01:12:23;;;;;;;;;;;;;;;15.47;100.00;98713.47;1608361;88;24604;-85
2022/06/12 01:14:51;;;;;;;;;;;;;;;15.42;100.00;98714.34;1605701;88;21547;-85
2022/06/12 01:17:19;;;;;;;;;;;;;;;15.37;100.00;98716.55;1604879;88;26089;-85
2022/06/12 01:19:47;;;;;;;;;;;;;;;15.32;100.00;98720.05;1603542;88;24604;-85
2022/06/12 01:22:15;;;;;;;;;;;;;;;15.27;100.00;98721.41;1641683;87;20207;-84
2022/06/12 01:24:45;;;;;;;;;;;;;;;15.27;100.00;98716.97;1639096;86;24616;-86
2022/06/12 01:27:16;;;;;;;;;;;;;;;15.31;100.00;98715.74;1641134;86;22115;-86
2022/06/12 01:29:43;;;;;;;;;;;;;;;15.39;100.00;98711.95;1640843;85;26062;-86
2022/06/12 01:32:23;;;;;;;;;;;;;;;15.39;100.00;98705.36;1640892;87;25018;-84
2022/06/12 01:34:51;;;;;;;;;;;;;;;15.32;100.00;98709.98;1642314;86;20313;-85
2022/06/12 01:37:25;;;;;;;;;;;;;;;15.20;100.00;98714.49;1636464;86;25525;-89
2022/06/12 01:39:52;;;;;;;;;;;;;;;15.02;100.00;98714.70;1639444;85;22055;-89
2022/06/12 01:42:29;;;;;;;;;;;;;;;14.93;100.00;98719.44;1637585;85;26235;-90
2022/06/12 01:45:14;;;;;;;;;;;;;;;14.88;100.00;98717.66;1638113;85;25061;-90
2022/06/12 01:47:58;;;;;;;;;;;;;;;14.84;100.00;98705.69;1642411;85;20183;-90
2022/06/12 01:50:30;;;;;;;;;;;;;;;14.86;100.00;98704.61;1639395;85;20249;-86
2022/06/12 01:53:01;;;;;;;;;;;;;;;14.87;100.00;98709.39;1641015;85;22092;-85
2022/06/12 01:55:33;;;;;;;;;;;;;;;14.87;100.00;98711.55;1639952;86;22859;-85
2022/06/12 01:58:04;;;;;;;;;;;;;;;14.85;100.00;98712.63;1640516;85;24552;-89
2022/06/12 02:00:30;;;;;;;;;;;;;;;14.89;100.00;98709.61;1645599;85;20255;-89
2022/06/12 02:02:57;;;;;;;;;;;;;;;14.92;100.00;98708.53;1637076;85;20234;-89
2022/06/12 02:05:27;;;;;;;;;;;;;;;14.91;100.00;98710.81;1643309;86;20238;-89
2022/06/12 02:07:55;;;;;;;;;;;;;;;14.79;100.00;98699.95;1641177;85;26174;-89
2022/06/12 02:10:23;;;;;;;;;;;;;;;14.64;100.00;98702.91;1644605;86;25164;-90
2022/06/12 02:13:13;;;;;;;;;;;;;;;14.55;100.00;98703.67;1646818;85;20249;-89
2022/06/12 02:15:53;;;;;;;;;;;;;;;14.54;100.00;98700.67;1673787;85;24645;-90
2022/06/12 02:18:21;;;;;;;;;;;;;;;14.57;100.00;98697.78;1673491;85;21975;-89
2022/06/12 02:20:48;;;;;;;;;;;;;;;14.49;100.00;98706.80;1672767;84;26236;-90
2022/06/12 02:23:16;;;;;;;;;;;;;;;14.44;100.00;98704.19;1671485;83;24443;-89
2022/06/12 02:25:44;;;;;;;;;;;;;;;14.35;100.00;98700.92;1669066;85;20156;-89
2022/06/12 02:28:14;;;;;;;;;;;;;;;14.33;100.00;98697.13;1674236;85;24644;-89
2022/06/12 02:30:42;;;;;;;;;;;;;;;14.28;100.00;98701.09;1670247;83;21995;-89
2022/06/12 02:33:10;;;;;;;;;;;;;;;14.29;100.00;98694.39;1668991;85;26074;-89
2022/06/12 02:35:47;;;;;;;;;;;;;;;14.35;100.00;98700.45;1673555;85;24565;-89
2022/06/12 02:38:17;;;;;;;;;;;;;;;14.39;100.00;98708.52;1669995;83;20224;-89
2022/06/12 02:40:48;;;;;;;;;;;;;;;14.48;100.00;98715.66;1670769;85;24521;-89
2022/06/12 02:43:16;;;;;;;;;;;;;;;14.55;100.00;98716.00;1668873;84;21971;-89
2022/06/12 02:45:43;;;;;;;;;;;;;;;14.63;100.00;98707.81;1665033;85;25982;-85
2022/06/12 02:48:11;;;;;;;;;;;;;;;14.62;100.00;98714.52;1676374;83;24494;-85
2022/06/12 02:50:42;;;;;;;;;;;;;;;14.64;100.00;98717.88;1638339;86;20231;-89
2022/06/12 02:53:19;;;;;;;;;;;;;;;14.68;100.00;98713.17;1600408;87;25241;-89
2022/06/12 02:55:50;;;;;;;;;;;;;;;14.72;100.00;98717.26;1616183;87;22023;-88
2022/06/12 02:58:19;;;;;;;;;;;;;;;14.71;100.00;98714.27;1631573;87;26040;-85
2022/06/12 03:00:54;;;;;;;;;;;;;;;14.67;100.00;98715.00;1645965;86;25235;-85
2022/06/12 03:03:30;;;;;;;;;;;;;;;14.65;100.00;98716.44;1648951;86;20251;-85
2022/06/12 03:05:58;;;;;;;;;;;;;;;14.61;100.00;98715.03;1603214;87;24611;-85
2022/06/12 03:08:26;;;;;;;;;;;;;;;14.57;100.00;98711.42;1626249;87;22001;-84
2022/06/12 03:11:10;;;;;;;;;;;;;;;14.53;100.00;98718.75;1629210;86;26924;-84
2022/06/12 03:13:37;;;;;;;;;;;;;;;14.54;100.00;98715.64;1623294;87;24492;-89
2022/06/12 03:16:10;;;;;;;;;;;;;;;14.53;100.00;98720.06;1627318;86;20168;-89
2022/06/12 03:18:45;;;;;;;;;;;;;;;14.52;100.00;98715.75;1626905;87;20480;-89
2022/06/12 03:21:30;;;;;;;;;;;;;;;14.55;100.00;98714.69;1625209;86;22030;-89
2022/06/12 03:24:07;;;;;;;;;;;;;;;14.51;100.00;98715.39;1651366;85;26047;-89
2022/06/12 03:26:36;;;;;;;;;;;;;;;14.50;100.00;98716.38;1627405;87;24706;-89
2022/06/12 03:29:08;;;;;;;;;;;;;;;14.57;100.00;98717.53;1654940;85;20275;-89
2022/06/12 03:31:36;;;;;;;;;;;;;;;14.70;100.00;98713.42;1623479;86;24899;-90
2022/06/12 03:34:04;;;;;;;;;;;;;;;14.85;100.00;98716.58;1640038;86;22069;-90
2022/06/12 03:36:39;;;;;;;;;;;;;;;14.99;100.00;98714.50;1638157;84;26064;-89
2022/06/12 03:39:27;;;;;;;11.30;4.60;;;;;;;15.10;100.00;98715.39;1632935;87;24627;-89
2022/06/12 03:42:18;;;;;;;11.63;5.33;;;;;;;15.21;100.00;98717.97;1613247;86;28090;-89
2022/06/12 03:44:54;;;;;;;7.63;3.67;;;;;;;15.34;100.00;98727.33;1634487;85;28085;-89
2022/06/12 03:47:29;;;;;;;10.15;4.37;;;;;;;15.55;100.00;98726.02;1611491;87;28120;-89
2022/06/12 03:49:57;;;;;;;;;;;;;;;15.77;100.00;98726.33;1641386;86;26250;-89
2022/06/12 03:52:25;;;;;;;;;;;;;;;16.07;100.00;98732.92;1626417;87;25272;-89
2022/06/12 03:55:08;;;;;;;;;;;;;;;16.31;100.00;98728.10;1626891;85;20276;-89
2022/06/12 03:57:56;;;;;;;;;;;;;;;16.58;100.00;98731.92;1645421;86;25228;-85
2022/06/12 04:00:40;;;;;;;;;;;;;;;16.84;100.00;98730.44;1645450;86;22673;-85
2022/06/12 04:03:27;;;;;;;;;;;;;;;17.02;100.00;98737.19;1645461;86;25622;-85
2022/06/12 04:05:54;;;;;;;;;;;;;;;17.14;100.00;98742.17;1645393;86;24432;-84
2022/06/12 04:08:22;;;;;;;;;;;;;;;17.33;100.00;98746.61;1644967;84;20266;-85
2022/06/12 04:10:49;;;;;;;;;;;;;;;17.58;100.00;98741.18;1641852;85;24603;-85
2022/06/12 04:13:18;;;;;;;;;;;;;;;17.81;100.00;98737.73;1656018;86;22059;-89
2022/06/12 04:15:46;;;;;;;;;;;;;;;17.95;100.00;98739.41;1656456;85;26115;-90
2022/06/12 04:18:12;;;;;;;;;;;;;;;18.09;100.00;98742.08;1619869;86;24539;-86
2022/06/12 04:20:39;;;;;;;;;;;;;;;18.21;100.00;98742.72;1688038;84;20494;-86
2022/06/12 04:23:07;;;;;;;;;;;;;;;18.30;100.00;98733.88;1685922;84;24648;-86
2022/06/12 04:25:35;;;;;;;;;;;;;;;18.38;100.00;98740.60;1685081;83;22060;-86
2022/06/12 04:28:03;;;;;;;;;;;;;;;18.46;100.00;98739.35;1680900;83;25992;-86
2022/06/12 04:30:30;;;;;;;;;;;;;;;18.58;100.00;98736.87;1682503;84;24698;-86
2022/06/12 04:33:01;;;;;;;;;;;;;;;18.67;100.00;98743.07;1684655;83;20303;-85
2022/06/12 04:35:27;;;;;;;;;;;;;;;18.76;100.00;98744.84;1684045;84;24613;-85
2022/06/12 04:37:54;;;;;;;;;;;;;;;18.80;100.00;98744.38;1682792;84;20248;-85
2022/06/12 04:40:21;;;;;;;;;;;;;;;18.85;100.00;98741.77;1653615;85;26301;-85
2022/06/12 04:42:47;;;;;;;;;;;;;;;18.85;100.00;98746.58;1621311;86;24580;-86
2022/06/12 04:45:13;;;;;;;;;;;;;;;18.85;100.00;98748.39;1655370;85;20831;-86
2022/06/12 04:47:40;;;;;;;;;;;;;;;18.83;100.00;98747.70;1654370;85;24538;-86
2022/06/12 04:50:17;;;;;;;;;;;;;;;18.84;100.00;98743.58;1655187;86;21976;-86
2022/06/12 04:52:43;;;;;;;;;;;;;;;18.84;100.00;98748.05;1655320;86;26167;-86
2022/06/12 04:55:09;;;;;;;;;;;;;;;18.82;100.00;98744.20;1660223;85;20317;-86
2022/06/12 04:57:35;;;;;;;;;;;;;;;18.80;100.00;98743.55;1619625;87;20480;-86
2022/06/12 05:00:01;;;;;;;;;;;;;;;18.73;100.00;98742.48;1642928;87;20302;-86
2022/06/12 05:02:27;;;;;;;;;;;;;;;18.68;100.00;98742.93;1638395;87;20239;-86
2022/06/12 05:05:00;;;;;;;;;;;;;;;18.62;100.00;98746.67;1642027;85;21108;-85
2022/06/12 05:07:26;;;;;;;;;;;;;;;18.54;100.00;98743.46;1642296;87;24528;-85
2022/06/12 05:09:55;;;;;;;;;;;;;;;18.46;100.00;98748.63;1643722;85;20836;-85
2022/06/12 05:12:27;;;;;;;;;;;;;;;18.40;100.00;98753.19;1643468;85;24104;-86
2022/06/12 05:14:55;;;;;;;;;;;;;;;18.35;100.00;98749.67;1636392;86;21921;-89
2022/06/12 05:17:22;;;;;;;;;;;;;;;18.32;100.00;98751.30;1628350;87;26119;-89
2022/06/12 05:19:49;;;;;;;;;;;;;;;18.31;100.00;98754.09;1628408;87;24394;-89
2022/06/12 05:22:15;;;;;;;;;;;;;;;18.28;100.00;98761.83;1626465;87;20481;-90
2022/06/12 05:24:44;;;;;;;;;;;;;;;18.28;100.00;98762.32;1655650;85;24553;-90
2022/06/12 05:27:12;;;;;;;;;;;;;;;18.25;100.00;98754.19;1657521;85;21943;-90
2022/06/12 05:29:40;;;;;;;;;;;;;;;18.28;100.00;98758.34;1656407;85;25989;-90
2022/06/12 05:32:08;;;;;;;;;;;;;;;18.33;100.00;98754.76;1656143;85;24415;-89
2022/06/12 05:34:35;;;;;;;;;;;;;;;18.40;100.00;98751.87;1656608;85;20284;-89
2022/06/12 05:37:02;;;;;;;;;;;;;;;18.47;100.00;98753.44;1657497;85;24691;-88
2022/06/12 05:39:31;;;;;;;;;;;;;;;18.54;100.00;98755.84;1657363;85;23037;-87
2022/06/12 05:41:57;;;;;;;;;;;;;;;18.57;100.00;98750.27;1657210;85;26030;-86
2022/06/12 05:44:23;;;;;;;;;;;;;;;18.61;100.00;98756.92;1657167;85;24488;-86
2022/06/12 05:46:51;;;;;;;;;;;;;;;18.68;100.00;98758.00;1657641;85;20263;-87
2022/06/12 05:49:19;;;;;;;;;;;;;;;18.75;100.00;98759.91;1648718;86;24777;-86
2022/06/12 05:51:47;;;;;;;;;;;;;;;18.80;100.00;98758.13;1656918;85;21841;-87
2022/06/12 05:54:19;;;;;;;;;;;;;;;18.86;100.00;98756.70;1656333;85;26045;-85
2022/06/12 05:56:45;;;;;;;;;;;;;;;18.91;100.00;98758.39;1657320;85;24495;-86
2022/06/12 05:59:11;;;;;;;;;;;;;;;18.97;100.00;98762.61;1656357;85;20311;-85
2022/06/12 06:01:39;;;;;;;;;;;;;;;19.02;100.00;98758.17;1655992;85;24601;-86
2022/06/12 06:04:05;;;;;;;;;;;;;;;19.07;100.00;98758.55;1627191;87;21574;-86
2022/06/12 06:06:36;;;;;;;;;;;;;;;19.03;100.00;98758.02;1635297;87;26725;-89
2022/06/12 06:09:03;;;;;;;;;;;;;;;18.96;100.00;98759.61;1601233;88;24269;-89
2022/06/12 06:11:29;;;;;;;;;;;;;;;18.98;100.00;98762.12;1656865;85;20576;-89
2022/06/12 06:13:55;;;;;;;;;;;;;;;19.01;100.00;98761.80;1657616;85;20753;-90
2022/06/12 06:16:21;;;;;;;;;;;;;;;19.09;100.00;98755.25;1645669;85;20979;-89
2022/06/12 06:18:47;;;;;;;;;;;;;;;19.08;100.00;98761.05;1636336;86;26699;-89
2022/06/12 06:21:14;;;;;;;;;;;;;;;19.07;100.00;98762.52;1634397;85;20336;-89
2022/06/12 06:23:40;;;;;;;;;;;;;;;19.12;100.00;98758.91;1636136;85;20231;-89
2022/06/12 06:26:07;;;;;;;;;;;;;;;19.22;100.00;98763.64;1640675;85;24629;-89
2022/06/12 06:28:33;;;;;;;;;;;;;;;19.28;100.00;98764.84;1641122;86;22037;-85
2022/06/12 06:31:00;;;;;;;;;;;;;;;19.29;100.00;98756.73;1641849;86;20931;-84
2022/06/12 06:33:26;;;;;;;;;;;;;;;19.36;100.00;98767.09;1640167;85;24603;-85
2022/06/12 06:35:51;;;;;;;;;;;;;;;19.52;100.00;98769.05;1641839;86;21078;-86
2022/06/12 06:38:19;;;;;;;;;;;;;;;19.68;100.00;98770.98;1638058;86;20809;-85
2022/06/12 06:40:46;;;;;;;;;;;;;;;19.69;100.00;98768.67;1641041;86;22700;-89
2022/06/12 06:43:13;;;;;;;;;;;;;;;19.67;100.00;98769.31;1640842;85;25961;-89
2022/06/12 06:48:25;;;;;;;;;;;;;;;19.62;100.00;98770.62;1638392;85;20358;-85
2022/06/12 06:50:50;;;;;;;;;;;;;;;19.78;100.00;98768.56;1642126;85;24567;-85
2022/06/12 06:53:16;;;;;;;;;;;;;;;19.91;100.00;98766.29;1638543;85;20221;-86
2022/06/12 06:55:44;;;;;;;;;;;;;;;19.83;100.00;98769.41;1636569;86;21314;-86
2022/06/12 06:58:12;;;;;;;;;;;;;;;19.73;100.00;98761.56;1636894;87;24467;-89
2022/06/12 07:00:45;;;;;;;;;;;;;;;19.86;100.00;98756.64;1639543;85;20407;-86
2022/06/12 07:03:11;;;;;;;;;;;;;;;20.02;100.00;98759.87;1638250;86;24565;-90
2022/06/12 07:05:38;;;;;;;;;;;;;;;19.97;100.00;98756.36;1635989;85;22252;-86
2022/06/12 07:08:04;;;;;;;;;;;;;;;19.90;100.00;98754.52;1637330;85;25957;-90
2022/06/12 07:10:32;;;;;;;;;;;;;;;19.86;100.00;98750.48;1640531;86;24463;-86
2022/06/12 07:12:59;;;;;;;;;;;;;;;19.84;100.00;98747.17;1639721;87;20504;-86
2022/06/12 07:15:26;;;;;;;;;;;;;;;19.83;100.00;98745.51;1636140;86;24682;-86
2022/06/12 07:17:54;;;;;;;;;;;;;;;19.81;100.00;98740.34;1629429;87;22070;-86
2022/06/12 07:20:21;;;;;;;;;;;;;;;19.89;100.00;98748.86;1630128;86;26204;-89
2022/06/12 07:22:47;;;;;;;;;;;;;;;19.96;100.00;98745.42;1628236;87;24460;-86
2022/06/12 07:25:13;;;;;;;;;;;;;;;20.08;100.00;98747.28;1629980;88;20282;-86
2022/06/12 07:27:40;;;;;;;;;;;;;;;20.17;100.00;98745.02;1595640;89;24743;-86
2022/06/12 07:30:07;;;;;;;;;;;;;;;20.22;100.00;98739.22;1596948;88;22609;-86
2022/06/12 07:32:33;;;;;;;;;;;;;;;20.33;100.00;98748.26;1630058;87;26173;-86
2022/06/12 07:35:05;;;;;;;;;;;;;;;20.37;100.00;98742.45;1629829;88;24494;-85
2022/06/12 07:37:35;;;;;;;;;;;;;;;20.57;100.00;98739.50;1629973;88;20181;-86
2022/06/12 07:40:02;;;;;;;;;;;;;;;20.78;100.00;98737.24;1630959;86;24513;-86
2022/06/12 07:42:28;;;;;;;;;;;;;;;20.87;100.00;98741.56;1630708;87;21970;-86
2022/06/12 07:44:54;;;;;;;;;;;;;;;20.91;100.00;98741.56;1629607;88;20974;-85
2022/06/12 07:47:20;;;;;;;;;;;;;;;21.02;100.00;98737.74;1610581;88;20342;-87
2022/06/12 07:49:46;;;;;;;;;;;;;;;21.16;100.00;98738.47;1630223;88;20450;-86
2022/06/12 07:52:12;;;;;;;;;;;;;;;21.24;100.00;98740.61;1630004;87;24528;-85
2022/06/12 07:54:43;;;;;;;;;;;;;;;21.32;100.00;98741.12;1592472;89;22066;-86
2022/06/12 07:57:11;;;;;;;;;;;;;;;21.36;100.00;98744.27;1597883;87;26827;-85
2022/06/12 07:59:37;;;;;;;;;;;;;;;21.45;100.00;98745.91;1601960;88;24489;-85
2022/06/12 08:02:09;;;;;;;;;;;;;;;21.56;100.00;98738.91;1620259;88;20320;-86
2022/06/12 08:04:36;;;;;;;;;;;;;;;21.61;100.00;98739.23;1596342;89;24706;-86
2022/06/12 08:07:03;;;;;;;;;;;;;;;21.73;100.00;98740.54;1601786;89;22742;-90
2022/06/12 08:09:29;;;;;;;;;;;;;;;21.76;100.00;98739.38;1601724;89;26021;-86
2022/06/12 08:11:55;;;;;;;;;;;;;;;21.75;100.00;98734.55;1594247;89;20354;-86
2022/06/12 08:14:21;;;;;;;;;;;;;;;21.81;100.00;98741.03;1601695;89;20341;-87
2022/06/12 08:16:47;;;;;;;;;;;;;;;21.87;100.00;98746.52;1575291;89;24603;-87
2022/06/12 08:21:57;;;;;;;;;;;;;;;22.04;100.00;98743.30;1585991;89;26736;-90
2022/06/12 08:24:24;;;;;;;;;;;;;;;22.11;100.00;98741.13;1602721;88;24543;-90
2022/06/12 08:26:50;;;;;;;;;;;;;;;22.31;100.00;98742.05;1595722;88;20300;-89
2022/06/12 08:29:18;;;;;;;;;;;;;;;22.38;100.00;98734.50;1587893;89;21486;-90
2022/06/12 08:31:46;;;;;;;;;;;;;;;22.39;100.00;98729.50;1596072;89;21982;-87
2022/06/12 08:34:22;;;;;;;2.87;1.65;;;;;;;22.44;100.00;98724.97;1586357;89;25960;-86
2022/06/12 08:36:52;;;;;;;4.12;1.52;;;;;;;22.47;100.00;98719.30;1632704;85;28215;-85
2022/06/12 08:39:18;;;;;;;1.92;1.30;;;;;;;22.50;100.00;98725.60;1640861;85;28049;-86
2022/06/12 08:41:54;;;;;;;3.30;1.30;;;;;;;22.51;100.00;98727.27;1648701;85;28208;-86
2022/06/12 08:44:36;;;;;;;3.33;1.87;;;;;;;22.50;100.00;98725.60;1644761;85;28171;-86
2022/06/12 08:47:11;;;;;;;3.25;1.80;;;;;;;22.46;100.00;98724.30;1650482;85;28095;-86
2022/06/12 08:49:50;;;;;;;3.98;2.00;;;;;;;22.54;99.76;98726.41;1646085;85;28068;-86
2022/06/12 08:52:20;;;;;;;4.40;1.85;;;;;;;22.70;99.65;98722.80;1651190;85;28217;-89
2022/06/12 08:54:51;;;;;;;4.25;1.77;;;;;;;22.85;99.63;98726.42;1627542;85;28129;-90
2022/06/12 08:57:21;;;;;;;4.22;1.72;;;;;;;22.94;99.35;98724.02;1652252;85;28102;-86
2022/06/12 09:00:00;;;;;;;2.50;1.47;;;;;;;22.98;98.53;98720.97;1637096;85;28003;-85
2022/06/12 09:02:33;;;;;;;2.40;1.10;;;;;;;23.02;97.83;98724.97;1649051;85;28043;-85
2022/06/12 09:05:00;;;;;;;;;;;;;;;23.04;96.03;98722.93;1649525;85;28021;-85
2022/06/12 09:07:44;;;;;;;;;;;;;;;23.08;94.74;98722.39;1653318;85;24641;-89
2022/06/12 09:10:12;;;;;;;;;;;;;;;23.08;93.36;98725.56;1626567;87;22637;-86
2022/06/12 09:12:43;;;;;;;;;;;;;;;23.12;92.70;98717.54;1618571;88;26008;-85
2022/06/12 09:15:23;;;;;;;;;;;;;;;23.07;91.43;98715.91;1621491;87;25178;-85
2022/06/12 09:17:51;;;;;;;;;;;;;;;23.14;91.13;98716.33;1630775;86;20216;-85
2022/06/12 09:20:35;;;;;;;;;;;;;;;23.29;91.25;98705.70;1635316;86;25401;-89
2022/06/12 09:23:07;;;;;;;;;;;;;;;23.45;91.30;98704.72;1637881;86;21951;-86
2022/06/12 09:25:35;;;;;;;;;;;;;;;23.43;90.39;98708.06;1626914;87;26074;-86
2022/06/12 09:28:23;;;;;;;;;;;;;;;23.44;89.64;98700.38;1621906;87;24750;-86
2022/06/12 09:30:51;;;;;;;;;;;;;;;23.47;89.06;98698.70;1600977;87;20187;-86
2022/06/12 09:33:22;;;;;;;;;;;;;;;23.46;88.16;98701.05;1649533;86;24566;-85
2022/06/12 09:35:57;;;;;;;;;;;;;;;23.47;87.98;98695.52;1624318;87;22650;-86
2022/06/12 09:38:44;;;;;;;;;;;;;;;23.56;87.92;98695.78;1642753;86;26030;-86
2022/06/12 09:41:12;;;;;;;;;;;;;;;23.63;87.49;98693.19;1634824;86;24519;-86
2022/06/12 09:43:57;;;;;;;;;;;;;;;23.68;87.00;98691.63;1637707;86;20253;-86
2022/06/12 09:46:25;;;;;;;;;;;;;;;23.78;86.95;98689.50;1667995;85;24699;-85
2022/06/12 09:48:59;;;;;;;;;;;;;;;23.95;87.16;98686.12;1669721;85;22065;-86
2022/06/12 09:51:31;;;;;;;;;;;;;;;24.02;86.87;98686.22;1669960;85;26758;-85
2022/06/12 09:54:09;;;;;;;;;;;;;;;24.22;87.35;98676.62;1667556;84;24598;-85
2022/06/12 09:56:37;;;;;;;;;;;;;;;24.35;87.27;98674.11;1673172;84;20281;-86
2022/06/12 09:59:11;;;;;;;;;;;;;;;24.27;86.12;98672.90;1669809;85;24640;-85
2022/06/12 10:01:41;;;;;;;;;;;;;;;24.20;85.13;98673.32;1663081;85;22167;-85
2022/06/12 10:04:16;;;;;;;;;;;;;;;24.16;83.95;98671.52;1631412;87;26681;-86
2022/06/12 10:06:44;;;;;;;;;;;;;;;24.28;83.86;98665.67;1646061;86;25216;-85
2022/06/12 10:09:25;;;;;;;;;;;;;;;24.32;83.19;98667.81;1633726;87;20264;-86
2022/06/12 10:11:58;;;;;;;;;;;;;;;24.31;82.26;98665.31;1647285;86;24654;-85
2022/06/12 10:14:33;;;;;;;;;;;;;;;24.20;80.32;98662.63;1632457;87;22051;-85
2022/06/12 10:17:04;;;;;;;;;;;;;;;24.18;79.29;98665.98;1646901;86;25817;-85
2022/06/12 10:19:36;;;;;;;;;;;;;;;24.15;78.02;98658.31;1646326;86;25294;-85
2022/06/12 10:22:04;;;;;;;;;;;;;;;24.13;76.94;98654.98;1640112;86;20252;-85
2022/06/12 10:24:30;;;;;;;;;;;;;;;24.15;76.54;98652.46;1613484;86;24703;-85
2022/06/12 10:27:01;;;;;;;;;;;;;;;24.14;75.44;98646.78;1640655;87;20926;-89
2022/06/12 10:29:31;;;;;;;;;;;;;;;24.13;74.54;98654.98;1647851;85;26168;-86
2022/06/12 10:32:03;;;;;;;;;;;;;;;24.09;73.73;98651.04;1647857;86;25168;-88
2022/06/12 10:34:32;;;;;;;;;;;;;;;24.10;73.19;98650.86;1614213;87;20257;-87
2022/06/12 10:37:12;;;;;;;;;;;;;;;24.10;72.44;98644.68;1618398;88;24772;-85
2022/06/12 10:39:40;;;;;;;;;;;;;;;24.14;71.89;98646.78;1617075;87;21948;-85
2022/06/12 10:42:08;;;;;;;;;;;;;;;24.16;71.69;98640.75;1616199;88;26204;-88
2022/06/12 10:44:45;;;;;;;;;;;;;;;24.29;72.06;98644.09;1617358;88;24586;-87
2022/06/12 10:47:16;;;;;;;;;;;;;;;24.37;72.03;98637.30;1615151;88;20229;-89
2022/06/12 10:49:42;;;;;;;;;;;;;;;24.49;72.15;98640.31;1617308;87;24504;-87
2022/06/12 10:52:19;;;;;;;;;;;;;;;24.62;71.90;98632.90;1633756;86;22157;-85
2022/06/12 10:54:45;;;;;;;;;;;;;;;24.67;71.35;98635.83;1631313;86;26681;-87
2022/06/12 10:57:24;;;;;;;;;;;;;;;24.69;70.79;98632.47;1631864;87;25386;-89
2022/06/12 11:00:04;;;;;;;;;;;;;;;24.71;70.64;98637.92;1638859;86;20251;-85
2022/06/12 11:02:35;;;;;;;;;;;;;;;24.87;70.70;98632.84;1640845;86;24522;-85
2022/06/12 11:05:05;;;;;;;;;;;;;;;24.86;69.88;98639.22;1635799;86;22053;-89
2022/06/12 11:07:39;;;;;;;;;;;;;;;24.75;68.62;98631.70;1633826;87;25639;-89
2022/06/12 11:10:07;;;;;;;;;;;;;;;24.70;68.07;98622.91;1612208;87;24557;-88
2022/06/12 11:12:35;;;;;;;;;;;;;;;24.67;67.09;98618.43;1612289;87;20221;-85
2022/06/12 11:15:21;;;;;;;;;;;;;;;24.66;66.56;98616.80;1600896;88;24663;-88
2022/06/12 11:17:55;;;;;;;;;;;;;;;24.69;66.64;98609.71;1615197;87;21998;-89
2022/06/12 11:20:23;;;;;;;;;;;;;;;24.71;66.42;98609.82;1574571;89;26929;-86
2022/06/12 11:22:56;;;;;;;;;;;;;;;24.77;66.43;98614.91;1597020;88;24584;-86
2022/06/12 11:25:33;;;;;;;;;;;;;;;24.81;66.23;98610.86;1634752;87;20487;-87
2022/06/12 11:28:19;;;;;;;;;;;;;;;25.06;66.85;98605.41;1607111;88;24715;-86
2022/06/12 11:31:02;;;;;;;;;;;;;;;25.17;66.63;98606.21;1592260;89;22028;-86
2022/06/12 11:33:30;;;;;;;;;;;;;;;25.28;66.74;98607.01;1621451;88;25562;-86
2022/06/12 11:35:58;;;;;;;;;;;;;;;25.38;66.39;98601.29;1623533;88;24532;-90
2022/06/12 11:38:42;;;;;;;;;;;;;;;25.40;65.53;98605.95;1640568;86;20253;-90
2022/06/12 11:41:10;;;;;;;;;;;;;;;25.36;64.95;98602.02;1628132;88;24515;-86
2022/06/12 11:43:50;;;;;;;;;;;;;;;25.42;65.05;98592.66;1649009;86;22656;-86
2022/06/12 11:46:20;;;;;;;;;;;;;;;25.54;65.50;98592.92;1639177;87;26064;-86
2022/06/12 11:48:51;;;;;;;;;;;;;;;25.51;64.61;98587.98;1601369;88;24506;-85
2022/06/12 11:51:27;;;;;;;;;;;;;;;25.72;65.38;98583.05;1606860;88;20620;-86
2022/06/12 11:54:10;;;;;;;;;;;;;;;25.74;64.71;98583.69;1670157;85;24636;-90
2022/06/12 11:56:58;;;;;;;;;;;;;;;25.59;63.43;98587.83;1641101;87;22685;-86
2022/06/12 11:59:42;;;;;;;;;;;;;;;25.54;63.00;98586.23;1638018;87;26051;-90
2022/06/12 12:02:10;;;;;;;;;;;;;;;25.45;62.10;98580.72;1617502;88;24495;-86
2022/06/12 12:04:40;;;;;;;;;;;;;;;25.45;61.46;98583.91;1636229;87;20247;-86
2022/06/12 12:07:27;;;;;;;;;;;;;;;25.48;61.33;98579.48;1637476;87;24823;-86
2022/06/12 12:10:03;;;;;;;;;;;;;;;25.43;60.90;98571.53;1635107;87;22243;-85
2022/06/12 12:12:32;;;;;;;;;;;;;;;25.50;60.83;98570.23;1634741;86;26114;-85
2022/06/12 12:15:06;;;;;;;;;;;;;;;25.62;60.81;98562.49;1633592;87;24486;-89
2022/06/12 12:17:34;;;;;;;;;;;;;;;25.56;60.04;98567.30;1633655;86;20247;-85
2022/06/12 12:20:01;;;;;;;;;;;;;;;25.47;59.55;98554.56;1631285;86;25202;-85
2022/06/12 12:22:32;;;;;;;;;;;;;;;25.45;59.50;98563.81;1601552;88;21981;-85
2022/06/12 12:24:59;;;;;;;;;;;;;;;25.44;59.36;98557.62;1575139;89;26613;-86
2022/06/12 12:27:39;;;;;;;;;;;;;;;25.57;59.86;98548.35;1596361;89;24249;-86
2022/06/12 12:30:19;;;;;;;;;;;;;;;25.64;59.54;98548.39;1595680;88;20224;-86
2022/06/12 12:32:47;;;;;;;;;;;;;;;25.68;59.48;98542.93;1588277;88;24569;-85
2022/06/12 12:41:11;;;;;;;;;;;;;;;25.73;59.42;98548.52;1584388;89;22093;-85
2022/06/12 12:43:21;;;;;;;;;;;;;;;25.81;59.25;98541.62;1583785;89;20281;-85
2022/06/12 12:45:51;;;;;;;;;;;;;;;25.87;59.12;98539.47;1584214;89;24703;-86
2022/06/12 12:48:17;;;;;;;;;;;;;;;25.94;59.30;98543.02;1583311;89;21977;-86
2022/06/12 12:50:47;;;;;;;;;;;;;;;26.02;59.38;98541.47;1584019;90;25953;-88
2022/06/12 12:53:27;;;;;;;;;;;;;;;26.19;59.95;98536.55;1584496;89;24620;-90
2022/06/12 12:55:57;;;;;;;;;;;;;;;26.24;59.73;98531.43;1566690;90;20231;-87
2022/06/12 12:58:24;;;;;;;;;;;;;;;26.15;58.78;98532.63;1584304;89;24396;-85
2022/06/12 13:00:53;;;;;;;;;;;;;;;26.25;58.56;98527.72;1584362;89;22058;-86
2022/06/12 13:03:23;;;;;;;;;;;;;;;26.36;58.58;98524.94;1583787;89;26092;-86
2022/06/12 13:05:51;;;;;;;;;;;;;;;26.26;57.85;98528.55;1583253;89;24520;-86